sensor_id;sensor_type;location;lat;lon;timestamp;P1;durP1;ratioP1;P2;durP2;ratioP2
78120;SDS011;67585;44.802;10.332;2023-12-04T00:00:24;13.38;;;4.93;;
78120;SDS011;67585;44.802;10.332;2023-12-04T00:02:50;17.15;;;5.63;;
78120;SDS011;67585;44.802;10.332;2023-12-04T00:05:15;18.95;;;6.82;;
78120;SDS011;67585;44.802;10.332;2023-12-04T00:07:40;16.40;;;5.80;;
78120;SDS011;67585;44.802;10.332;2023-12-04T00:10:06;15.32;;;6.05;;
78120;SDS011;67585;44.802;10.332;2023-12-04T00:12:32;17.88;;;6.28;;
78120;SDS011;67585;44.802;10.332;2023-12-04T00:14:57;17.90;;;6.15;;
78120;SDS011;67585;44.802;10.332;2023-12-04T00:17:23;13.95;;;5.57;;
78120;SDS011;67585;44.802;10.332;2023-12-04T00:19:48;21.20;;;6.70;;
78120;SDS011;67585;44.802;10.332;2023-12-04T00:22:13;21.35;;;6.28;;
78120;SDS011;67585;44.802;10.332;2023-12-04T00:24:39;16.63;;;5.63;;
78120;SDS011;67585;44.802;10.332;2023-12-04T00:27:04;12.05;;;4.80;;
78120;SDS011;67585;44.802;10.332;2023-12-04T00:29:29;12.55;;;5.18;;
78120;SDS011;67585;44.802;10.332;2023-12-04T00:31:55;15.68;;;5.22;;
78120;SDS011;67585;44.802;10.332;2023-12-04T00:34:22;12.63;;;5.65;;
78120;SDS011;67585;44.802;10.332;2023-12-04T00:36:47;14.20;;;4.63;;
78120;SDS011;67585;44.802;10.332;2023-12-04T00:39:13;12.23;;;4.15;;
78120;SDS011;67585;44.802;10.332;2023-12-04T00:41:38;11.57;;;4.50;;
78120;SDS011;67585;44.802;10.332;2023-12-04T00:44:03;11.13;;;4.07;;
78120;SDS011;67585;44.802;10.332;2023-12-04T00:46:29;15.90;;;4.05;;
78120;SDS011;67585;44.802;10.332;2023-12-04T00:48:54;12.85;;;4.28;;
78120;SDS011;67585;44.802;10.332;2023-12-04T00:51:20;12.07;;;3.72;;
78120;SDS011;67585;44.802;10.332;2023-12-04T00:53:45;15.40;;;4.57;;
78120;SDS011;67585;44.802;10.332;2023-12-04T00:56:11;12.27;;;4.07;;
78120;SDS011;67585;44.802;10.332;2023-12-04T00:58:36;17.73;;;4.80;;
78120;SDS011;67585;44.802;10.332;2023-12-04T01:01:04;14.45;;;3.97;;
78120;SDS011;67585;44.802;10.332;2023-12-04T01:03:30;15.02;;;5.45;;
78120;SDS011;67585;44.802;10.332;2023-12-04T01:05:58;10.88;;;3.63;;
78120;SDS011;67585;44.802;10.332;2023-12-04T01:08:24;12.93;;;4.40;;
78120;SDS011;67585;44.802;10.332;2023-12-04T01:10:49;14.63;;;5.70;;
78120;SDS011;67585;44.802;10.332;2023-12-04T01:13:14;17.50;;;6.20;;
78120;SDS011;67585;44.802;10.332;2023-12-04T01:15:40;19.75;;;6.55;;
78120;SDS011;67585;44.802;10.332;2023-12-04T01:18:06;16.00;;;5.93;;
78120;SDS011;67585;44.802;10.332;2023-12-04T01:20:31;17.13;;;6.30;;
78120;SDS011;67585;44.802;10.332;2023-12-04T01:22:58;16.50;;;5.38;;
78120;SDS011;67585;44.802;10.332;2023-12-04T01:25:23;15.45;;;5.70;;
78120;SDS011;67585;44.802;10.332;2023-12-04T01:27:49;13.15;;;4.93;;
78120;SDS011;67585;44.802;10.332;2023-12-04T01:30:14;13.55;;;3.55;;
78120;SDS011;67585;44.802;10.332;2023-12-04T01:32:40;15.80;;;5.03;;
78120;SDS011;67585;44.802;10.332;2023-12-04T01:35:07;15.50;;;4.53;;
78120;SDS011;67585;44.802;10.332;2023-12-04T01:37:32;15.40;;;4.80;;
78120;SDS011;67585;44.802;10.332;2023-12-04T01:39:59;12.32;;;5.07;;
78120;SDS011;67585;44.802;10.332;2023-12-04T01:42:24;16.20;;;5.80;;
78120;SDS011;67585;44.802;10.332;2023-12-04T01:44:50;11.05;;;4.95;;
78120;SDS011;67585;44.802;10.332;2023-12-04T01:47:15;13.38;;;4.60;;
78120;SDS011;67585;44.802;10.332;2023-12-04T01:49:42;11.85;;;3.95;;
78120;SDS011;67585;44.802;10.332;2023-12-04T01:52:08;14.57;;;4.30;;
78120;SDS011;67585;44.802;10.332;2023-12-04T01:54:34;21.88;;;5.90;;
78120;SDS011;67585;44.802;10.332;2023-12-04T01:57:02;11.93;;;4.75;;
78120;SDS011;67585;44.802;10.332;2023-12-04T01:59:29;13.32;;;4.15;;
78120;SDS011;67585;44.802;10.332;2023-12-04T02:01:54;12.88;;;4.10;;
78120;SDS011;67585;44.802;10.332;2023-12-04T02:04:21;10.98;;;3.15;;
78120;SDS011;67585;44.802;10.332;2023-12-04T02:06:47;12.48;;;4.78;;
78120;SDS011;67585;44.802;10.332;2023-12-04T02:09:12;13.18;;;4.15;;
78120;SDS011;67585;44.802;10.332;2023-12-04T02:11:39;15.27;;;4.53;;
78120;SDS011;67585;44.802;10.332;2023-12-04T02:14:05;13.38;;;4.50;;
78120;SDS011;67585;44.802;10.332;2023-12-04T02:16:31;11.70;;;3.88;;
78120;SDS011;67585;44.802;10.332;2023-12-04T02:18:59;12.48;;;4.18;;
78120;SDS011;67585;44.802;10.332;2023-12-04T02:21:25;12.75;;;4.25;;
78120;SDS011;67585;44.802;10.332;2023-12-04T02:23:51;15.40;;;4.97;;
78120;SDS011;67585;44.802;10.332;2023-12-04T02:26:18;12.05;;;4.22;;
78120;SDS011;67585;44.802;10.332;2023-12-04T02:28:54;12.65;;;4.78;;
78120;SDS011;67585;44.802;10.332;2023-12-04T02:31:23;12.88;;;3.72;;
78120;SDS011;67585;44.802;10.332;2023-12-04T02:33:51;16.35;;;4.85;;
78120;SDS011;67585;44.802;10.332;2023-12-04T02:36:19;9.57;;;3.28;;
78120;SDS011;67585;44.802;10.332;2023-12-04T02:38:46;15.32;;;3.97;;
78120;SDS011;67585;44.802;10.332;2023-12-04T02:41:11;10.43;;;3.35;;
78120;SDS011;67585;44.802;10.332;2023-12-04T02:43:37;10.63;;;4.00;;
78120;SDS011;67585;44.802;10.332;2023-12-04T02:46:02;11.25;;;4.32;;
78120;SDS011;67585;44.802;10.332;2023-12-04T02:48:28;11.13;;;3.20;;
78120;SDS011;67585;44.802;10.332;2023-12-04T02:50:54;10.65;;;3.40;;
78120;SDS011;67585;44.802;10.332;2023-12-04T02:53:19;11.65;;;3.97;;
78120;SDS011;67585;44.802;10.332;2023-12-04T02:55:45;12.10;;;3.47;;
78120;SDS011;67585;44.802;10.332;2023-12-04T02:58:10;11.40;;;3.33;;
78120;SDS011;67585;44.802;10.332;2023-12-04T03:00:36;12.50;;;4.30;;
78120;SDS011;67585;44.802;10.332;2023-12-04T03:03:01;10.80;;;3.70;;
78120;SDS011;67585;44.802;10.332;2023-12-04T03:05:27;15.93;;;3.67;;
78120;SDS011;67585;44.802;10.332;2023-12-04T03:07:52;11.23;;;3.13;;
78120;SDS011;67585;44.802;10.332;2023-12-04T03:10:17;11.52;;;3.53;;
78120;SDS011;67585;44.802;10.332;2023-12-04T03:12:44;13.15;;;3.42;;
78120;SDS011;67585;44.802;10.332;2023-12-04T03:15:09;11.88;;;3.97;;
78120;SDS011;67585;44.802;10.332;2023-12-04T03:17:36;14.00;;;3.78;;
78120;SDS011;67585;44.802;10.332;2023-12-04T03:20:02;10.65;;;2.88;;
78120;SDS011;67585;44.802;10.332;2023-12-04T03:22:28;13.23;;;3.58;;
78120;SDS011;67585;44.802;10.332;2023-12-04T03:24:53;12.38;;;3.40;;
78120;SDS011;67585;44.802;10.332;2023-12-04T03:27:19;11.55;;;3.38;;
78120;SDS011;67585;44.802;10.332;2023-12-04T03:29:44;9.55;;;3.70;;
78120;SDS011;67585;44.802;10.332;2023-12-04T03:32:10;7.30;;;2.72;;
78120;SDS011;67585;44.802;10.332;2023-12-04T03:34:35;9.55;;;3.65;;
78120;SDS011;67585;44.802;10.332;2023-12-04T03:37:01;10.30;;;3.22;;
78120;SDS011;67585;44.802;10.332;2023-12-04T03:39:26;12.55;;;3.75;;
78120;SDS011;67585;44.802;10.332;2023-12-04T03:41:52;9.95;;;3.45;;
78120;SDS011;67585;44.802;10.332;2023-12-04T03:44:17;9.38;;;3.25;;
78120;SDS011;67585;44.802;10.332;2023-12-04T03:46:42;11.50;;;3.83;;
78120;SDS011;67585;44.802;10.332;2023-12-04T03:49:08;9.80;;;4.18;;
78120;SDS011;67585;44.802;10.332;2023-12-04T03:51:33;16.13;;;3.70;;
78120;SDS011;67585;44.802;10.332;2023-12-04T03:53:59;11.02;;;4.22;;
78120;SDS011;67585;44.802;10.332;2023-12-04T03:56:24;11.02;;;3.72;;
78120;SDS011;67585;44.802;10.332;2023-12-04T03:58:49;11.68;;;3.83;;
78120;SDS011;67585;44.802;10.332;2023-12-04T04:01:15;15.27;;;3.92;;
78120;SDS011;67585;44.802;10.332;2023-12-04T04:03:40;12.30;;;3.88;;
78120;SDS011;67585;44.802;10.332;2023-12-04T04:06:07;12.18;;;3.10;;
78120;SDS011;67585;44.802;10.332;2023-12-04T04:08:33;11.38;;;3.63;;
78120;SDS011;67585;44.802;10.332;2023-12-04T04:10:58;15.52;;;4.22;;
78120;SDS011;67585;44.802;10.332;2023-12-04T04:13:24;11.38;;;4.22;;
78120;SDS011;67585;44.802;10.332;2023-12-04T04:15:49;13.07;;;4.88;;
78120;SDS011;67585;44.802;10.332;2023-12-04T04:18:15;12.52;;;4.38;;
78120;SDS011;67585;44.802;10.332;2023-12-04T04:20:40;11.48;;;3.80;;
78120;SDS011;67585;44.802;10.332;2023-12-04T04:23:06;13.70;;;3.88;;
78120;SDS011;67585;44.802;10.332;2023-12-04T04:25:31;13.45;;;4.03;;
78120;SDS011;67585;44.802;10.332;2023-12-04T04:27:56;12.65;;;3.25;;
78120;SDS011;67585;44.802;10.332;2023-12-04T04:30:22;10.48;;;4.22;;
78120;SDS011;67585;44.802;10.332;2023-12-04T04:32:47;14.00;;;5.18;;
78120;SDS011;67585;44.802;10.332;2023-12-04T04:35:12;9.55;;;3.50;;
78120;SDS011;67585;44.802;10.332;2023-12-04T04:37:38;11.23;;;4.30;;
78120;SDS011;67585;44.802;10.332;2023-12-04T04:40:04;10.75;;;4.13;;
78120;SDS011;67585;44.802;10.332;2023-12-04T04:42:29;16.05;;;4.50;;
78120;SDS011;67585;44.802;10.332;2023-12-04T04:44:55;11.38;;;4.72;;
78120;SDS011;67585;44.802;10.332;2023-12-04T04:47:20;12.07;;;4.70;;
78120;SDS011;67585;44.802;10.332;2023-12-04T04:49:45;15.15;;;4.28;;
78120;SDS011;67585;44.802;10.332;2023-12-04T04:52:11;10.82;;;4.32;;
78120;SDS011;67585;44.802;10.332;2023-12-04T04:54:36;12.85;;;5.13;;
78120;SDS011;67585;44.802;10.332;2023-12-04T04:57:02;16.95;;;4.68;;
78120;SDS011;67585;44.802;10.332;2023-12-04T04:59:27;12.18;;;4.03;;
78120;SDS011;67585;44.802;10.332;2023-12-04T05:01:55;11.15;;;4.55;;
78120;SDS011;67585;44.802;10.332;2023-12-04T05:04:21;13.75;;;4.97;;
78120;SDS011;67585;44.802;10.332;2023-12-04T05:06:47;19.55;;;4.07;;
78120;SDS011;67585;44.802;10.332;2023-12-04T05:09:12;13.20;;;4.35;;
78120;SDS011;67585;44.802;10.332;2023-12-04T05:11:37;13.45;;;4.28;;
78120;SDS011;67585;44.802;10.332;2023-12-04T05:14:03;12.02;;;4.60;;
78120;SDS011;67585;44.802;10.332;2023-12-04T05:16:28;17.55;;;5.88;;
78120;SDS011;67585;44.802;10.332;2023-12-04T05:18:54;11.52;;;4.15;;
78120;SDS011;67585;44.802;10.332;2023-12-04T05:21:19;13.25;;;4.07;;
78120;SDS011;67585;44.802;10.332;2023-12-04T05:23:45;12.05;;;4.38;;
78120;SDS011;67585;44.802;10.332;2023-12-04T05:26:10;11.38;;;5.35;;
78120;SDS011;67585;44.802;10.332;2023-12-04T05:28:36;16.17;;;5.47;;
78120;SDS011;67585;44.802;10.332;2023-12-04T05:31:01;12.35;;;5.03;;
78120;SDS011;67585;44.802;10.332;2023-12-04T05:33:26;11.80;;;3.70;;
78120;SDS011;67585;44.802;10.332;2023-12-04T05:35:52;11.38;;;4.68;;
78120;SDS011;67585;44.802;10.332;2023-12-04T05:38:18;12.77;;;4.90;;
78120;SDS011;67585;44.802;10.332;2023-12-04T05:40:43;11.02;;;3.75;;
78120;SDS011;67585;44.802;10.332;2023-12-04T05:43:09;11.75;;;4.53;;
78120;SDS011;67585;44.802;10.332;2023-12-04T05:45:34;12.95;;;5.43;;
78120;SDS011;67585;44.802;10.332;2023-12-04T05:48:00;12.45;;;4.53;;
78120;SDS011;67585;44.802;10.332;2023-12-04T05:50:25;14.05;;;4.55;;
78120;SDS011;67585;44.802;10.332;2023-12-04T05:52:51;13.15;;;4.47;;
78120;SDS011;67585;44.802;10.332;2023-12-04T05:55:16;12.18;;;5.00;;
78120;SDS011;67585;44.802;10.332;2023-12-04T05:57:43;12.82;;;5.03;;
78120;SDS011;67585;44.802;10.332;2023-12-04T06:00:09;15.73;;;4.53;;
78120;SDS011;67585;44.802;10.332;2023-12-04T06:02:38;14.48;;;5.60;;
78120;SDS011;67585;44.802;10.332;2023-12-04T06:05:07;12.07;;;5.38;;
78120;SDS011;67585;44.802;10.332;2023-12-04T06:07:33;10.40;;;4.22;;
78120;SDS011;67585;44.802;10.332;2023-12-04T06:09:58;15.65;;;4.90;;
78120;SDS011;67585;44.802;10.332;2023-12-04T06:12:24;14.90;;;5.30;;
78120;SDS011;67585;44.802;10.332;2023-12-04T06:14:49;13.77;;;5.20;;
78120;SDS011;67585;44.802;10.332;2023-12-04T06:17:15;13.90;;;4.57;;
78120;SDS011;67585;44.802;10.332;2023-12-04T06:19:41;11.20;;;4.60;;
78120;SDS011;67585;44.802;10.332;2023-12-04T06:22:06;12.18;;;4.88;;
78120;SDS011;67585;44.802;10.332;2023-12-04T06:24:32;14.95;;;4.90;;
78120;SDS011;67585;44.802;10.332;2023-12-04T06:27:01;14.10;;;4.60;;
78120;SDS011;67585;44.802;10.332;2023-12-04T06:29:28;12.48;;;4.70;;
78120;SDS011;67585;44.802;10.332;2023-12-04T06:31:54;13.32;;;4.90;;
78120;SDS011;67585;44.802;10.332;2023-12-04T06:34:20;12.63;;;3.75;;
78120;SDS011;67585;44.802;10.332;2023-12-04T06:36:46;13.63;;;3.90;;
78120;SDS011;67585;44.802;10.332;2023-12-04T06:39:12;14.32;;;4.75;;
78120;SDS011;67585;44.802;10.332;2023-12-04T06:41:39;10.82;;;4.20;;
78120;SDS011;67585;44.802;10.332;2023-12-04T06:44:05;9.63;;;3.28;;
78120;SDS011;67585;44.802;10.332;2023-12-04T06:46:31;9.98;;;3.22;;
78120;SDS011;67585;44.802;10.332;2023-12-04T06:49:01;11.60;;;4.10;;
78120;SDS011;67585;44.802;10.332;2023-12-04T06:51:30;14.40;;;4.38;;
78120;SDS011;67585;44.802;10.332;2023-12-04T06:53:55;13.25;;;4.97;;
78120;SDS011;67585;44.802;10.332;2023-12-04T06:56:21;11.52;;;4.13;;
78120;SDS011;67585;44.802;10.332;2023-12-04T06:58:46;15.77;;;4.90;;
78120;SDS011;67585;44.802;10.332;2023-12-04T07:01:12;11.60;;;4.80;;
78120;SDS011;67585;44.802;10.332;2023-12-04T07:03:37;14.32;;;4.35;;
78120;SDS011;67585;44.802;10.332;2023-12-04T07:06:03;15.65;;;4.97;;
78120;SDS011;67585;44.802;10.332;2023-12-04T07:08:28;16.17;;;4.78;;
78120;SDS011;67585;44.802;10.332;2023-12-04T07:10:54;15.43;;;5.35;;
78120;SDS011;67585;44.802;10.332;2023-12-04T07:13:19;12.98;;;5.05;;
78120;SDS011;67585;44.802;10.332;2023-12-04T07:15:45;17.60;;;4.95;;
78120;SDS011;67585;44.802;10.332;2023-12-04T07:18:10;14.60;;;4.70;;
78120;SDS011;67585;44.802;10.332;2023-12-04T07:20:36;15.23;;;4.70;;
78120;SDS011;67585;44.802;10.332;2023-12-04T07:23:01;15.43;;;4.90;;
78120;SDS011;67585;44.802;10.332;2023-12-04T07:25:27;13.40;;;5.25;;
78120;SDS011;67585;44.802;10.332;2023-12-04T07:27:52;12.48;;;5.55;;
78120;SDS011;67585;44.802;10.332;2023-12-04T07:30:19;15.38;;;4.70;;
78120;SDS011;67585;44.802;10.332;2023-12-04T07:32:45;15.32;;;5.20;;
78120;SDS011;67585;44.802;10.332;2023-12-04T07:35:11;11.73;;;4.25;;
78120;SDS011;67585;44.802;10.332;2023-12-04T07:37:37;9.63;;;4.25;;
78120;SDS011;67585;44.802;10.332;2023-12-04T07:40:03;12.10;;;5.18;;
78120;SDS011;67585;44.802;10.332;2023-12-04T07:42:30;14.77;;;4.32;;
78120;SDS011;67585;44.802;10.332;2023-12-04T07:44:56;12.68;;;4.88;;
78120;SDS011;67585;44.802;10.332;2023-12-04T07:47:22;15.38;;;4.78;;
78120;SDS011;67585;44.802;10.332;2023-12-04T07:49:48;17.85;;;4.90;;
78120;SDS011;67585;44.802;10.332;2023-12-04T07:52:14;14.40;;;6.13;;
78120;SDS011;67585;44.802;10.332;2023-12-04T07:54:39;14.05;;;5.80;;
78120;SDS011;67585;44.802;10.332;2023-12-04T07:57:04;13.90;;;5.43;;
78120;SDS011;67585;44.802;10.332;2023-12-04T07:59:30;17.98;;;5.60;;
78120;SDS011;67585;44.802;10.332;2023-12-04T08:01:56;13.90;;;4.95;;
78120;SDS011;67585;44.802;10.332;2023-12-04T08:04:21;14.50;;;4.82;;
78120;SDS011;67585;44.802;10.332;2023-12-04T08:06:46;11.68;;;5.22;;
78120;SDS011;67585;44.802;10.332;2023-12-04T08:09:12;19.20;;;5.35;;
78120;SDS011;67585;44.802;10.332;2023-12-04T08:11:37;14.43;;;5.55;;
78120;SDS011;67585;44.802;10.332;2023-12-04T08:14:05;14.05;;;5.82;;
78120;SDS011;67585;44.802;10.332;2023-12-04T08:16:30;16.92;;;4.97;;
78120;SDS011;67585;44.802;10.332;2023-12-04T08:18:56;17.13;;;5.43;;
78120;SDS011;67585;44.802;10.332;2023-12-04T08:21:21;17.83;;;5.35;;
78120;SDS011;67585;44.802;10.332;2023-12-04T08:23:47;13.65;;;6.47;;
78120;SDS011;67585;44.802;10.332;2023-12-04T08:26:20;19.90;;;5.68;;
78120;SDS011;67585;44.802;10.332;2023-12-04T08:28:49;17.73;;;5.93;;
78120;SDS011;67585;44.802;10.332;2023-12-04T08:31:15;22.17;;;7.20;;
78120;SDS011;67585;44.802;10.332;2023-12-04T08:33:41;16.77;;;6.40;;
78120;SDS011;67585;44.802;10.332;2023-12-04T08:36:07;14.88;;;5.43;;
78120;SDS011;67585;44.802;10.332;2023-12-04T08:38:33;16.45;;;6.35;;
78120;SDS011;67585;44.802;10.332;2023-12-04T08:40:58;17.02;;;6.03;;
78120;SDS011;67585;44.802;10.332;2023-12-04T08:43:24;16.38;;;6.57;;
78120;SDS011;67585;44.802;10.332;2023-12-04T08:45:49;13.00;;;5.32;;
78120;SDS011;67585;44.802;10.332;2023-12-04T08:48:14;12.98;;;6.75;;
78120;SDS011;67585;44.802;10.332;2023-12-04T08:50:40;14.13;;;6.30;;
78120;SDS011;67585;44.802;10.332;2023-12-04T08:53:05;11.57;;;4.90;;
78120;SDS011;67585;44.802;10.332;2023-12-04T08:55:31;13.48;;;4.70;;
78120;SDS011;67585;44.802;10.332;2023-12-04T08:57:56;16.58;;;6.47;;
78120;SDS011;67585;44.802;10.332;2023-12-04T09:00:22;12.45;;;5.05;;
78120;SDS011;67585;44.802;10.332;2023-12-04T09:02:47;14.73;;;5.35;;
78120;SDS011;67585;44.802;10.332;2023-12-04T09:05:13;12.57;;;4.70;;
78120;SDS011;67585;44.802;10.332;2023-12-04T09:07:39;14.18;;;4.60;;
78120;SDS011;67585;44.802;10.332;2023-12-04T09:10:05;13.23;;;5.20;;
78120;SDS011;67585;44.802;10.332;2023-12-04T09:12:30;14.57;;;5.10;;
78120;SDS011;67585;44.802;10.332;2023-12-04T09:14:56;14.85;;;5.57;;
78120;SDS011;67585;44.802;10.332;2023-12-04T09:17:21;12.43;;;5.65;;
78120;SDS011;67585;44.802;10.332;2023-12-04T09:19:47;19.42;;;6.28;;
78120;SDS011;67585;44.802;10.332;2023-12-04T09:22:12;13.13;;;4.85;;
78120;SDS011;67585;44.802;10.332;2023-12-04T09:24:37;16.80;;;5.53;;
78120;SDS011;67585;44.802;10.332;2023-12-04T09:27:03;13.13;;;6.05;;
78120;SDS011;67585;44.802;10.332;2023-12-04T09:29:29;14.60;;;6.03;;
78120;SDS011;67585;44.802;10.332;2023-12-04T09:31:54;11.68;;;4.95;;
78120;SDS011;67585;44.802;10.332;2023-12-04T09:34:20;15.93;;;5.90;;
78120;SDS011;67585;44.802;10.332;2023-12-04T09:36:46;12.02;;;5.22;;
78120;SDS011;67585;44.802;10.332;2023-12-04T09:39:13;12.73;;;5.13;;
78120;SDS011;67585;44.802;10.332;2023-12-04T09:41:39;15.13;;;5.28;;
78120;SDS011;67585;44.802;10.332;2023-12-04T09:44:07;17.35;;;4.60;;
78120;SDS011;67585;44.802;10.332;2023-12-04T09:46:33;16.70;;;5.00;;
78120;SDS011;67585;44.802;10.332;2023-12-04T09:48:59;16.38;;;5.50;;
78120;SDS011;67585;44.802;10.332;2023-12-04T09:51:26;14.02;;;5.50;;
78120;SDS011;67585;44.802;10.332;2023-12-04T09:53:52;12.25;;;4.80;;
78120;SDS011;67585;44.802;10.332;2023-12-04T09:56:20;13.93;;;5.60;;
78120;SDS011;67585;44.802;10.332;2023-12-04T09:58:47;14.93;;;5.68;;
78120;SDS011;67585;44.802;10.332;2023-12-04T10:01:17;13.02;;;5.32;;
78120;SDS011;67585;44.802;10.332;2023-12-04T10:03:43;12.32;;;4.88;;
78120;SDS011;67585;44.802;10.332;2023-12-04T10:06:11;18.55;;;5.95;;
78120;SDS011;67585;44.802;10.332;2023-12-04T10:08:42;15.93;;;5.20;;
78120;SDS011;67585;44.802;10.332;2023-12-04T10:11:08;12.48;;;3.72;;
78120;SDS011;67585;44.802;10.332;2023-12-04T10:13:33;13.52;;;6.03;;
78120;SDS011;67585;44.802;10.332;2023-12-04T10:15:59;14.48;;;5.95;;
78120;SDS011;67585;44.802;10.332;2023-12-04T10:18:25;15.80;;;5.53;;
78120;SDS011;67585;44.802;10.332;2023-12-04T10:20:53;11.70;;;4.93;;
78120;SDS011;67585;44.802;10.332;2023-12-04T10:23:19;15.52;;;5.57;;
78120;SDS011;67585;44.802;10.332;2023-12-04T10:25:45;19.77;;;6.13;;
78120;SDS011;67585;44.802;10.332;2023-12-04T10:28:11;14.10;;;6.28;;
78120;SDS011;67585;44.802;10.332;2023-12-04T10:30:38;14.10;;;5.25;;
78120;SDS011;67585;44.802;10.332;2023-12-04T10:33:04;13.93;;;4.30;;
78120;SDS011;67585;44.802;10.332;2023-12-04T10:35:34;12.20;;;3.97;;
78120;SDS011;67585;44.802;10.332;2023-12-04T10:38:06;12.73;;;3.85;;
78120;SDS011;67585;44.802;10.332;2023-12-04T10:40:34;12.95;;;4.22;;
78120;SDS011;67585;44.802;10.332;2023-12-04T10:43:20;11.43;;;3.55;;
78120;SDS011;67585;44.802;10.332;2023-12-04T10:45:47;11.18;;;3.55;;
78120;SDS011;67585;44.802;10.332;2023-12-04T10:48:14;10.98;;;4.45;;
78120;SDS011;67585;44.802;10.332;2023-12-04T10:50:42;15.10;;;4.65;;
78120;SDS011;67585;44.802;10.332;2023-12-04T10:53:10;12.93;;;3.88;;
78120;SDS011;67585;44.802;10.332;2023-12-04T10:55:37;11.75;;;4.28;;
78120;SDS011;67585;44.802;10.332;2023-12-04T10:58:11;12.25;;;4.40;;
78120;SDS011;67585;44.802;10.332;2023-12-04T11:00:39;10.02;;;3.50;;
78120;SDS011;67585;44.802;10.332;2023-12-04T11:03:08;18.50;;;5.05;;
78120;SDS011;67585;44.802;10.332;2023-12-04T11:05:39;11.05;;;3.47;;
78120;SDS011;67585;44.802;10.332;2023-12-04T11:08:06;12.18;;;3.90;;
78120;SDS011;67585;44.802;10.332;2023-12-04T11:10:36;12.55;;;5.15;;
78120;SDS011;67585;44.802;10.332;2023-12-04T11:13:15;10.75;;;3.90;;
78120;SDS011;67585;44.802;10.332;2023-12-04T11:15:47;11.20;;;4.07;;
78120;SDS011;67585;44.802;10.332;2023-12-04T11:18:15;7.85;;;2.85;;
78120;SDS011;67585;44.802;10.332;2023-12-04T11:20:46;11.55;;;4.22;;
78120;SDS011;67585;44.802;10.332;2023-12-04T11:23:21;18.17;;;5.15;;
78120;SDS011;67585;44.802;10.332;2023-12-04T11:25:47;14.90;;;4.22;;
78120;SDS011;67585;44.802;10.332;2023-12-04T11:28:13;12.57;;;3.20;;
78120;SDS011;67585;44.802;10.332;2023-12-04T11:30:39;12.65;;;3.83;;
78120;SDS011;67585;44.802;10.332;2023-12-04T11:33:05;13.80;;;4.65;;
78120;SDS011;67585;44.802;10.332;2023-12-04T11:35:31;13.30;;;4.25;;
78120;SDS011;67585;44.802;10.332;2023-12-04T11:37:58;9.07;;;2.78;;
78120;SDS011;67585;44.802;10.332;2023-12-04T11:40:24;14.05;;;4.15;;
78120;SDS011;67585;44.802;10.332;2023-12-04T11:42:50;9.13;;;2.88;;
78120;SDS011;67585;44.802;10.332;2023-12-04T11:45:19;10.20;;;3.35;;
78120;SDS011;67585;44.802;10.332;2023-12-04T11:47:49;12.80;;;3.95;;
78120;SDS011;67585;44.802;10.332;2023-12-04T11:50:15;10.32;;;3.33;;
78120;SDS011;67585;44.802;10.332;2023-12-04T11:52:40;10.05;;;3.10;;
78120;SDS011;67585;44.802;10.332;2023-12-04T11:55:06;11.80;;;3.83;;
78120;SDS011;67585;44.802;10.332;2023-12-04T11:57:33;22.02;;;4.50;;
78120;SDS011;67585;44.802;10.332;2023-12-04T12:05:13;11.75;;;4.72;;
78120;SDS011;67585;44.802;10.332;2023-12-04T12:07:39;11.65;;;4.57;;
78120;SDS011;67585;44.802;10.332;2023-12-04T12:10:05;14.07;;;4.38;;
78120;SDS011;67585;44.802;10.332;2023-12-04T12:12:31;14.75;;;4.30;;
78120;SDS011;67585;44.802;10.332;2023-12-04T12:15:00;12.98;;;4.90;;
78120;SDS011;67585;44.802;10.332;2023-12-04T12:17:25;14.23;;;3.60;;
78120;SDS011;67585;44.802;10.332;2023-12-04T12:19:51;12.25;;;4.85;;
78120;SDS011;67585;44.802;10.332;2023-12-04T12:22:16;14.57;;;4.55;;
78120;SDS011;67585;44.802;10.332;2023-12-04T12:24:42;15.07;;;5.10;;
78120;SDS011;67585;44.802;10.332;2023-12-04T12:27:07;14.25;;;3.60;;
78120;SDS011;67585;44.802;10.332;2023-12-04T12:29:33;10.80;;;4.45;;
78120;SDS011;67585;44.802;10.332;2023-12-04T12:31:58;13.38;;;4.57;;
78120;SDS011;67585;44.802;10.332;2023-12-04T12:34:24;10.30;;;3.75;;
78120;SDS011;67585;44.802;10.332;2023-12-04T12:36:49;12.00;;;4.97;;
78120;SDS011;67585;44.802;10.332;2023-12-04T12:39:15;13.23;;;5.03;;
78120;SDS011;67585;44.802;10.332;2023-12-04T12:41:46;15.32;;;4.22;;
78120;SDS011;67585;44.802;10.332;2023-12-04T12:44:15;15.27;;;4.90;;
78120;SDS011;67585;44.802;10.332;2023-12-04T12:46:41;12.55;;;5.47;;
78120;SDS011;67585;44.802;10.332;2023-12-04T12:49:06;10.15;;;3.97;;
78120;SDS011;67585;44.802;10.332;2023-12-04T12:51:32;11.57;;;4.97;;
78120;SDS011;67585;44.802;10.332;2023-12-04T12:53:57;11.98;;;4.32;;
78120;SDS011;67585;44.802;10.332;2023-12-04T12:56:27;15.05;;;5.68;;
78120;SDS011;67585;44.802;10.332;2023-12-04T12:58:53;17.08;;;4.38;;
78120;SDS011;67585;44.802;10.332;2023-12-04T13:01:18;11.45;;;4.50;;
78120;SDS011;67585;44.802;10.332;2023-12-04T13:03:47;13.00;;;4.50;;
78120;SDS011;67585;44.802;10.332;2023-12-04T13:06:12;13.20;;;5.47;;
78120;SDS011;67585;44.802;10.332;2023-12-04T13:08:45;15.57;;;5.45;;
78120;SDS011;67585;44.802;10.332;2023-12-04T13:11:11;13.68;;;4.55;;
78120;SDS011;67585;44.802;10.332;2023-12-04T13:13:36;15.73;;;4.70;;
78120;SDS011;67585;44.802;10.332;2023-12-04T13:16:02;11.45;;;4.88;;
78120;SDS011;67585;44.802;10.332;2023-12-04T13:18:27;16.02;;;5.10;;
78120;SDS011;67585;44.802;10.332;2023-12-04T13:20:53;14.68;;;4.32;;
78120;SDS011;67585;44.802;10.332;2023-12-04T13:23:18;12.52;;;4.25;;
78120;SDS011;67585;44.802;10.332;2023-12-04T13:25:43;11.02;;;4.13;;
78120;SDS011;67585;44.802;10.332;2023-12-04T13:28:09;15.15;;;5.07;;
78120;SDS011;67585;44.802;10.332;2023-12-04T13:30:35;16.13;;;4.90;;
78120;SDS011;67585;44.802;10.332;2023-12-04T13:33:00;15.27;;;5.47;;
78120;SDS011;67585;44.802;10.332;2023-12-04T13:35:26;13.38;;;4.65;;
78120;SDS011;67585;44.802;10.332;2023-12-04T13:37:51;12.80;;;4.88;;
78120;SDS011;67585;44.802;10.332;2023-12-04T13:40:20;12.90;;;3.85;;
78120;SDS011;67585;44.802;10.332;2023-12-04T13:42:52;14.90;;;6.20;;
78120;SDS011;67585;44.802;10.332;2023-12-04T13:45:36;11.48;;;4.35;;
78120;SDS011;67585;44.802;10.332;2023-12-04T13:48:02;14.55;;;5.68;;
78120;SDS011;67585;44.802;10.332;2023-12-04T13:50:28;12.43;;;4.88;;
78120;SDS011;67585;44.802;10.332;2023-12-04T13:52:53;15.93;;;6.88;;
78120;SDS011;67585;44.802;10.332;2023-12-04T13:55:25;15.57;;;6.03;;
78120;SDS011;67585;44.802;10.332;2023-12-04T13:58:09;14.30;;;4.40;;
78120;SDS011;67585;44.802;10.332;2023-12-04T14:00:48;13.18;;;5.00;;
78120;SDS011;67585;44.802;10.332;2023-12-04T14:03:14;16.08;;;5.03;;
78120;SDS011;67585;44.802;10.332;2023-12-04T14:05:39;14.02;;;5.10;;
78120;SDS011;67585;44.802;10.332;2023-12-04T14:08:05;15.10;;;5.53;;
78120;SDS011;67585;44.802;10.332;2023-12-04T14:10:30;17.67;;;5.53;;
78120;SDS011;67585;44.802;10.332;2023-12-04T14:12:56;15.13;;;5.45;;
78120;SDS011;67585;44.802;10.332;2023-12-04T14:15:22;16.25;;;5.53;;
78120;SDS011;67585;44.802;10.332;2023-12-04T14:17:47;13.80;;;5.45;;
78120;SDS011;67585;44.802;10.332;2023-12-04T14:20:12;12.02;;;5.10;;